Time;durP1;ratioP1;P1;durP2;ratioP2;P2;SDS_P1;SDS_P2;PMS_P1;PMS_P2;Temp;Humidity;BMP_temperature;BMP_pressure;BME280_temperature;BME280_humidity;BME280_pressure;Samples;Min_cycle;Max_cycle;Signal;HPM_P1;HPM_P2
2021/01/30 00:00:38;;;;;;;1999.90;999.90;;;3.80;99.90;;;;;;5090889;28;20185;-48
2021/01/30 00:03:04;;;;;;;1999.90;999.90;;;3.90;99.90;;;;;;5090136;28;20419;-48
2021/01/30 00:05:30;;;;;;;1999.90;999.90;;;3.90;99.90;;;;;;5090318;28;20497;-48
2021/01/30 00:07:56;;;;;;;1999.90;999.90;;;3.90;99.90;;;;;;5087233;28;20454;-48
2021/01/30 00:10:23;;;;;;;1999.90;999.90;;;3.90;99.90;;;;;;5090389;28;20185;-48
2021/01/30 17:16:05;;;;;;;1999.90;999.90;;;-2.50;99.90;;;;;;5105042;27;20564;-47
2021/01/30 17:18:32;;;;;;;1999.90;999.90;;;-2.60;99.90;;;;;;5083421;28;20517;-47
2021/01/30 17:21:02;;;;;;;1999.90;999.90;;;-2.60;99.90;;;;;;5085273;28;20438;-47
2021/01/30 17:23:28;;;;;;;1999.90;999.90;;;-2.50;99.90;;;;;;5086930;28;20525;-47
2021/01/30 17:25:54;;;;;;;1999.90;999.90;;;-2.50;99.90;;;;;;5085878;28;20998;-46
2021/01/30 17:28:20;;;;;;;1999.90;999.90;;;-2.50;99.90;;;;;;5086867;28;20996;-47
2021/01/30 17:30:46;;;;;;;1999.90;999.90;;;-2.50;99.90;;;;;;5086400;28;20426;-47
2021/01/30 17:33:12;;;;;;;1999.90;999.90;;;-2.40;99.90;;;;;;5085166;28;20459;-46
2021/01/30 17:35:38;;;;;;;1999.90;999.90;;;-2.40;99.90;;;;;;5085125;28;20688;-47
2021/01/30 17:38:07;;;;;;;1999.90;999.90;;;-2.40;99.90;;;;;;5085011;28;20445;-46
2021/01/30 17:40:33;;;;;;;1999.90;999.90;;;-2.40;99.90;;;;;;5085248;28;20885;-47
2021/01/30 17:42:59;;;;;;;1999.90;999.90;;;-2.40;99.90;;;;;;5087045;28;20419;-47
2021/01/30 17:45:26;;;;;;;1999.90;999.90;;;-2.40;99.90;;;;;;5085825;28;20457;-47
2021/01/30 17:47:52;;;;;;;1999.90;999.90;;;-2.40;99.90;;;;;;5085405;28;20748;-47
2021/01/30 17:50:18;;;;;;;1999.90;999.90;;;-2.40;99.90;;;;;;5083824;28;20545;-47
2021/01/30 17:52:44;;;;;;;1999.90;999.90;;;-2.40;99.90;;;;;;5086605;28;20260;-47
2021/01/30 17:55:10;;;;;;;1999.90;999.90;;;-2.40;99.90;;;;;;5084850;28;20561;-47
2021/01/30 17:57:37;;;;;;;1999.90;999.90;;;-2.30;99.90;;;;;;5083702;28;20205;-47
2021/01/30 18:00:14;;;;;;;1999.90;999.90;;;-2.30;99.90;;;;;;5083246;28;20442;-46
2021/01/30 18:02:40;;;;;;;1999.90;999.90;;;-2.30;99.90;;;;;;5077785;28;20434;-46
2021/01/30 18:05:06;;;;;;;1999.90;999.90;;;-2.40;99.90;;;;;;5083442;28;20459;-47
2021/01/30 18:07:32;;;;;;;1999.90;999.90;;;-2.30;99.90;;;;;;5087154;28;20262;-47
2021/01/30 18:09:58;;;;;;;1999.90;999.90;;;-2.30;99.90;;;;;;5085813;28;20447;-47
2021/01/30 18:12:24;;;;;;;1999.90;999.90;;;-2.30;99.90;;;;;;5067970;28;20177;-47
2021/01/30 18:14:49;;;;;;;1999.90;999.90;;;-2.40;99.90;;;;;;5100958;28;20469;-47
2021/01/30 18:17:15;;;;;;;1999.90;999.90;;;-2.30;99.90;;;;;;5080916;28;20207;-47
2021/01/30 18:19:41;;;;;;;1999.90;999.90;;;-2.40;99.90;;;;;;5080351;28;20178;-47
2021/01/30 18:22:08;;;;;;;1999.90;999.90;;;-2.30;99.90;;;;;;5083802;28;20180;-47
2021/01/30 18:24:34;;;;;;;1999.90;999.90;;;-2.40;99.90;;;;;;5085460;28;20435;-47
2021/01/30 18:26:59;;;;;;;1999.90;999.90;;;-2.50;99.90;;;;;;5072261;28;20553;-47
2021/01/30 18:29:26;;;;;;;1999.90;999.90;;;-2.50;99.90;;;;;;5071131;28;20378;-47
2021/01/30 18:31:54;;;;;;;1999.90;999.90;;;-2.40;99.90;;;;;;5064108;28;20222;-47
2021/01/30 18:34:19;;;;;;;1999.90;999.90;;;-2.40;99.90;;;;;;5070584;28;20463;-46
2021/01/30 18:36:46;;;;;;;1999.90;999.90;;;-2.40;99.90;;;;;;5071156;28;20451;-47
2021/01/30 18:39:12;;;;;;;1999.90;999.90;;;-2.50;99.90;;;;;;5070172;28;20181;-47
2021/01/30 18:41:38;;;;;;;1999.90;999.90;;;-2.50;99.90;;;;;;5071035;28;20941;-47
2021/01/30 18:44:06;;;;;;;1999.90;999.90;;;-2.50;99.90;;;;;;5071343;28;20423;-48
2021/01/30 18:46:32;;;;;;;1999.90;999.90;;;-2.50;99.90;;;;;;5066350;28;20513;-46
2021/01/30 18:48:58;;;;;;;1999.90;999.90;;;-2.50;99.90;;;;;;5070327;28;20510;-47
2021/01/30 18:51:24;;;;;;;1999.90;999.90;;;-2.50;99.90;;;;;;5071657;28;20581;-47
2021/01/30 18:53:50;;;;;;;1999.90;999.90;;;-2.60;99.90;;;;;;5073784;28;20459;-46
2021/01/30 18:56:17;;;;;;;1999.90;999.90;;;-2.60;99.90;;;;;;5073049;28;20532;-46
2021/01/30 18:58:44;;;;;;;1999.90;999.90;;;-2.50;99.90;;;;;;5073319;28;20419;-46
2021/01/30 19:01:11;;;;;;;1999.90;999.90;;;-2.60;99.90;;;;;;5072949;28;20431;-46
2021/01/30 19:03:37;;;;;;;1999.90;999.90;;;-2.60;99.90;;;;;;5073584;28;20774;-46
2021/01/30 19:06:02;;;;;;;1999.90;999.90;;;-2.60;99.90;;;;;;5072356;28;20492;-46
2021/01/30 19:08:28;;;;;;;1999.90;999.90;;;-2.60;99.90;;;;;;5071713;28;20216;-46
2021/01/30 19:10:53;;;;;;;1999.90;999.90;;;-2.60;99.90;;;;;;5072137;28;20189;-46
2021/01/30 19:13:19;;;;;;;1999.90;999.90;;;-2.70;99.90;;;;;;5068104;28;20213;-46
2021/01/30 19:15:45;;;;;;;1999.90;999.90;;;-2.70;99.90;;;;;;5066400;28;20710;-46
2021/01/30 19:18:11;;;;;;;1999.90;999.90;;;-2.70;99.90;;;;;;5067027;28;20275;-46
2021/01/30 19:20:38;;;;;;;1999.90;999.90;;;-2.80;99.90;;;;;;5067762;28;20255;-46
2021/01/30 19:23:06;;;;;;;1999.90;999.90;;;-2.80;99.90;;;;;;5069923;28;20499;-46
2021/01/30 19:25:32;;;;;;;1999.90;999.90;;;-2.90;99.90;;;;;;5069368;28;20435;-46
2021/01/30 19:27:58;;;;;;;1999.90;999.90;;;-2.90;99.90;;;;;;5069860;28;20467;-46
2021/01/30 19:30:25;;;;;;;1999.90;999.90;;;-2.90;99.90;;;;;;5069733;28;20514;-46
2021/01/30 19:32:54;;;;;;;1999.90;999.90;;;-2.90;99.90;;;;;;5069063;28;20185;-46
2021/01/30 19:35:20;;;;;;;1999.90;999.90;;;-2.90;99.90;;;;;;5069560;28;20828;-46
2021/01/30 19:37:46;;;;;;;1999.90;999.90;;;-2.90;99.90;;;;;;5068638;28;20542;-46
2021/01/30 19:40:13;;;;;;;1999.90;999.90;;;-2.90;99.90;;;;;;5070257;28;20424;-46
2021/01/30 19:42:38;;;;;;;1999.90;999.90;;;-2.90;99.90;;;;;;5069509;28;20512;-46
2021/01/30 19:45:08;;;;;;;1999.90;999.90;;;-2.90;99.90;;;;;;5066094;28;20435;-46
2021/01/30 19:47:38;;;;;;;1999.90;999.90;;;-2.90;99.90;;;;;;5068657;28;20745;-46
2021/01/30 19:50:06;;;;;;;1999.90;999.90;;;-2.90;99.90;;;;;;5066753;28;21026;-47
2021/01/30 19:52:31;;;;;;;1999.90;999.90;;;-2.90;99.90;;;;;;5068179;28;20444;-46
2021/01/30 19:54:57;;;;;;;1999.90;999.90;;;-2.90;99.90;;;;;;5064314;28;20470;-46
2021/01/30 19:57:23;;;;;;;1999.90;999.90;;;-2.90;99.90;;;;;;5069570;28;20201;-46
2021/01/30 19:59:48;;;;;;;1999.90;999.90;;;-3.00;99.90;;;;;;5068413;28;20213;-45
2021/01/30 20:02:14;;;;;;;1999.90;999.90;;;-3.00;99.90;;;;;;5069186;28;20925;-46
2021/01/30 20:04:39;;;;;;;1999.90;999.90;;;-2.90;99.90;;;;;;5067099;28;20177;-46
2021/01/30 20:07:05;;;;;;;1999.90;999.90;;;-2.90;99.90;;;;;;5070356;28;20613;-46
2021/01/30 20:09:31;;;;;;;1999.90;999.90;;;-3.00;99.90;;;;;;5067232;28;20185;-45
2021/01/30 20:11:56;;;;;;;1999.90;999.90;;;-3.00;99.90;;;;;;5069329;28;20180;-46
2021/01/30 20:14:22;;;;;;;1999.90;999.90;;;-3.00;99.90;;;;;;5068224;28;20561;-46
2021/01/30 20:16:47;;;;;;;1999.90;999.90;;;-3.10;99.90;;;;;;5068892;28;20330;-45
2021/01/30 20:19:13;;;;;;;1999.90;999.90;;;-3.10;99.90;;;;;;5067998;28;20192;-45
2021/01/30 20:21:38;;;;;;;1999.90;999.90;;;-3.20;99.90;;;;;;5067967;28;20599;-45
2021/01/30 20:24:05;;;;;;;1999.90;999.90;;;-3.30;99.90;;;;;;5068997;28;20180;-46
2021/01/30 20:26:30;;;;;;;1999.90;999.90;;;-3.30;99.90;;;;;;5067514;28;20630;-46
2021/01/30 20:28:56;;;;;;;1999.90;999.90;;;-3.30;99.90;;;;;;5069862;28;20481;-46
2021/01/30 20:31:22;;;;;;;1999.90;999.90;;;-3.30;99.90;;;;;;5068950;28;20184;-45
2021/01/30 20:33:47;;;;;;;1999.90;999.90;;;-3.40;99.90;;;;;;5068993;28;20181;-46
2021/01/30 20:36:14;;;;;;;1999.90;999.90;;;-3.40;99.90;;;;;;5068782;28;20989;-45
2021/01/30 20:38:40;;;;;;;1999.90;999.90;;;-3.40;99.90;;;;;;5069275;28;20175;-45
2021/01/30 20:41:11;;;;;;;1999.90;999.90;;;-3.40;99.90;;;;;;5068089;28;20423;-46
2021/01/30 20:43:37;;;;;;;1999.90;999.90;;;-3.40;99.90;;;;;;5066289;28;20416;-45
2021/01/30 20:46:02;;;;;;;1999.90;999.90;;;-3.30;99.90;;;;;;5065879;28;20447;-45
2021/01/30 20:48:29;;;;;;;1999.90;999.90;;;-3.30;99.90;;;;;;5068583;28;20440;-46
2021/01/30 20:50:56;;;;;;;1999.90;999.90;;;-3.40;99.90;;;;;;5068507;28;21583;-46
2021/01/30 20:53:23;;;;;;;1999.90;999.90;;;-3.40;99.90;;;;;;5082627;28;20423;-46
2021/01/30 20:55:49;;;;;;;1999.90;999.90;;;-3.40;99.90;;;;;;5067523;28;20458;-46
2021/01/30 20:58:15;;;;;;;1999.90;999.90;;;-3.50;99.90;;;;;;5068100;28;21029;-46
2021/01/30 21:00:41;;;;;;;1999.90;999.90;;;-3.50;99.90;;;;;;5067682;28;20444;-46
2021/01/30 21:03:08;;;;;;;1999.90;999.90;;;-3.60;99.90;;;;;;5064987;28;20432;-46
2021/01/30 21:05:34;;;;;;;1999.90;999.90;;;-3.60;99.90;;;;;;5066973;28;20796;-46
2021/01/30 21:08:00;;;;;;;1999.90;999.90;;;-3.70;99.90;;;;;;5068502;28;20451;-46
2021/01/30 21:10:26;;;;;;;1999.90;999.90;;;-3.70;99.90;;;;;;5069316;28;20426;-45
2021/01/30 21:12:53;;;;;;;1999.90;999.90;;;-3.70;99.90;;;;;;5066247;28;20276;-46
2021/01/30 21:15:20;;;;;;;1999.90;999.90;;;-3.70;99.90;;;;;;5067739;28;21018;-45
2021/01/30 21:17:45;;;;;;;1999.90;999.90;;;-3.70;99.90;;;;;;5068916;28;20439;-45
2021/01/30 21:20:12;;;;;;;1999.90;999.90;;;-3.70;99.90;;;;;;5067843;28;20431;-45
2021/01/30 21:22:38;;;;;;;1999.90;999.90;;;-3.70;99.90;;;;;;5069674;28;20227;-45
2021/01/30 21:25:05;;;;;;;1999.90;999.90;;;-3.70;99.90;;;;;;5066323;28;20447;-45
2021/01/30 21:27:31;;;;;;;1999.90;999.90;;;-3.70;99.90;;;;;;5067956;28;20475;-45
2021/01/30 21:29:58;;;;;;;1999.90;999.90;;;-3.70;99.90;;;;;;5066363;28;20436;-45
2021/01/30 21:32:25;;;;;;;1999.90;999.90;;;-3.70;99.90;;;;;;5068853;28;20195;-45
2021/01/30 21:34:51;;;;;;;1999.90;999.90;;;-3.70;99.90;;;;;;5067583;28;20463;-45
2021/01/30 21:37:17;;;;;;;1999.90;999.90;;;-3.70;99.90;;;;;;5068033;28;20519;-45
2021/01/30 21:39:42;;;;;;;1999.90;999.90;;;-3.60;99.90;;;;;;5068123;28;20204;-45
2021/01/30 21:42:08;;;;;;;1999.90;999.90;;;-3.60;99.90;;;;;;5069277;28;20177;-45
2021/01/30 21:44:34;;;;;;;1999.90;999.90;;;-3.60;99.90;;;;;;5069384;28;20652;-45
2021/01/30 21:46:59;;;;;;;1999.90;999.90;;;-3.50;99.90;;;;;;5068535;28;20761;-46
2021/01/30 21:49:25;;;;;;;1999.90;999.90;;;-3.50;99.90;;;;;;5069140;28;20185;-45
2021/01/30 21:51:50;;;;;;;1999.90;999.90;;;-3.50;99.90;;;;;;5067696;28;20673;-45
2021/01/30 21:54:16;;;;;;;1999.90;999.90;;;-3.40;99.90;;;;;;5066272;28;20296;-46
2021/01/30 21:56:42;;;;;;;1999.90;999.90;;;-3.40;99.90;;;;;;5064827;28;20204;-45
2021/01/30 21:59:08;;;;;;;1999.90;999.90;;;-3.40;99.90;;;;;;5068871;28;20516;-45
2021/01/30 22:01:35;;;;;;;1999.90;999.90;;;-3.40;99.90;;;;;;5067568;28;20189;-45
2021/01/30 22:04:00;;;;;;;1999.90;999.90;;;-3.40;99.90;;;;;;5069931;28;20495;-45
2021/01/30 22:06:26;;;;;;;1999.90;999.90;;;-3.40;99.90;;;;;;5071187;28;20567;-46
2021/01/30 22:08:52;;;;;;;1999.90;999.90;;;-3.40;99.90;;;;;;5072838;28;20193;-45
2021/01/30 22:11:18;;;;;;;1999.90;999.90;;;-3.50;99.90;;;;;;5070988;28;20208;-45
2021/01/30 22:13:44;;;;;;;1999.90;999.90;;;-3.50;99.90;;;;;;5072864;28;20177;-48
2021/01/30 22:16:10;;;;;;;1999.90;999.90;;;-3.40;99.90;;;;;;5071545;28;20463;-45
2021/01/30 22:18:36;;;;;;;1999.90;999.90;;;-3.50;99.90;;;;;;5072345;28;20422;-46
2021/01/30 22:21:01;;;;;;;1999.90;999.90;;;-3.50;99.90;;;;;;5071841;28;20441;-46
2021/01/30 22:23:27;;;;;;;1999.90;999.90;;;-3.50;99.90;;;;;;5072153;28;20213;-46
2021/01/30 22:25:53;;;;;;;1999.90;999.90;;;-3.60;99.90;;;;;;5071275;28;20443;-45
2021/01/30 22:28:19;;;;;;;1999.90;999.90;;;-3.60;99.90;;;;;;5071728;28;20585;-45
2021/01/30 22:30:45;;;;;;;1999.90;999.90;;;-3.60;99.90;;;;;;5071804;28;20205;-45
2021/01/30 22:33:14;;;;;;;1999.90;999.90;;;-3.60;99.90;;;;;;5071641;28;20442;-45
2021/01/30 22:35:40;;;;;;;1999.90;999.90;;;-3.60;99.90;;;;;;5071845;28;20451;-45
2021/01/30 22:38:06;;;;;;;1999.90;999.90;;;-3.60;99.90;;;;;;5071260;28;20459;-45
2021/01/30 22:40:32;;;;;;;1999.90;999.90;;;-3.60;99.90;;;;;;5071727;28;21337;-46
2021/01/30 22:42:57;;;;;;;1999.90;999.90;;;-3.70;99.90;;;;;;5068655;28;20181;-45
2021/01/30 22:45:23;;;;;;;1999.90;999.90;;;-3.70;99.90;;;;;;5068875;28;20194;-45
2021/01/30 22:47:49;;;;;;;1999.90;999.90;;;-3.70;99.90;;;;;;5071945;28;20235;-46
2021/01/30 22:50:17;;;;;;;1999.90;999.90;;;-3.80;99.90;;;;;;5071304;28;20436;-45
